KHIB/HIB METAR and TAF weather

Enter ICAO airport designator
Station Type Date Time Source
KHIB METAR 2019/06/26 19:53 UTC NOAA

KHIB 261953Z AUTO 27012G21KT 10SM SCT075 BKN100 27/11 A2995 RMK AO2 SLP142 T02720111


Station Type Date Time Source
KHIB Decoded METAR 2019/06/26 19:53 UTC NOAA

CHISHOLM-HIBBING AIRPORT, MN, United States (KHIB) 47-23N 92-50W 412M
Jun 26, 2019 - 03:53 PM EDT / 2019.06.26 1953 UTC
Wind: from the W (270 degrees) at 14 MPH (12 KT) gusting to 24 MPH (21 KT):0
Visibility: 10 mile(s):0
Sky conditions: mostly cloudy
Temperature: 81.0 F (27.2 C)
Dew Point: 52.0 F (11.1 C)
Relative Humidity: 36%
Pressure (altimeter): 29.95 in. Hg (1014 hPa)
ob: KHIB 261953Z AUTO 27012G21KT 10SM SCT075 BKN100 27/11 A2995 RMK AO2 SLP142 T02720111
cycle: 20

Station Type Date Time Source
KHIB TAF 2019/06/26 18:36 UTC NOAA

TAF KHIB 261733Z 2618/2718 27010G17KT P6SM FEW050
FM270100 26005KT P6SM FEW050
FM270900 00000KT 5SM BR SKC
FM271100 12004KT P6SM SCT250

Example: see airport list